Terminal Aerodrome Forecast
Issued by NWS

Home | Current Version | Previous Version | Text Only | Print | Product List | Glossary On
Versions: 1 2 3 4 5 6 7 8 9 10 11 12 13 14 15 16 17
000
FTUS43 KJKL 281738
TAFSJS
TAF
KSJS 281738Z 2818/2918 28008KT P6SM VCSH SCT025 OVC035
     FM282300 30004KT P6SM BKN030
     FM290300 36004KT P6SM OVC015
     FM291700 03004KT P6SM BKN025=

USA.gov is the U.S. government's official web portal to all federal, state and local government web resources and services.